Terminal Aerodrome Forecast
Issued by NWS

Home | Current Version | Previous Version | Text Only | Print | Product List | Glossary On
Versions: 1 2 3 4 5 6 7 8 9 10 11 12 13 14 15 16 17 18 19 20 21 22 23 24 25
000
FTUS43 KDLH 230500 RRA
TAFHIB
TAF
KHIB 230542Z 2306/2406 16007KT P6SM VCSH SCT025 BKN050
     FM230800 18004KT 6SM -RA BKN025 OVC040
      TEMPO 2309/2313 2SM -RA BR OVC007
     FM231300 21005KT P6SM BKN015
     FM231800 24007KT P6SM SCT035
     FM240000 18005KT P6SM SCT050=

USA.gov is the U.S. government's official web portal to all federal, state and local government web resources and services.